createdAt,value
2017-11-09T00:15:12.144Z,101373.56
2017-11-09T00:17:39.206Z,101374.50
2017-11-09T00:20:07.971Z,101377.95
2017-11-09T00:22:34.894Z,101375.04
2017-11-09T00:25:02.430Z,101379.86
2017-11-09T00:27:30.000Z,101381.05
2017-11-09T00:29:56.898Z,101375.09
2017-11-09T00:32:23.733Z,101373.01
2017-11-09T00:34:50.582Z,101376.08
2017-11-09T00:37:17.419Z,101383.10
2017-11-09T00:39:44.514Z,101377.95
2017-11-09T00:42:11.463Z,101378.77
2017-11-09T00:44:39.394Z,101380.41
2017-11-09T00:47:06.845Z,101380.67
2017-11-09T00:49:33.671Z,101379.36
2017-11-09T00:52:00.568Z,101386.81
2017-11-09T00:54:27.435Z,101392.47
2017-11-09T00:56:55.031Z,101389.64
2017-11-09T00:59:21.852Z,101393.32
2017-11-09T01:01:48.684Z,101394.05
2017-11-09T01:04:15.488Z,101394.17
2017-11-09T01:06:42.492Z,101399.55
2017-11-09T01:09:10.335Z,101402.38
2017-11-09T01:11:38.071Z,101399.33
2017-11-09T01:14:05.010Z,101406.57
2017-11-09T01:16:31.884Z,101398.34
2017-11-09T01:18:58.709Z,101389.58
2017-11-09T01:21:25.652Z,101400.98
2017-11-09T01:23:52.736Z,101404.48
2017-11-09T01:26:20.649Z,101407.01
2017-11-09T01:28:47.535Z,101391.71
2017-11-09T01:31:14.509Z,101389.36
2017-11-09T01:33:41.410Z,101394.62
2017-11-09T01:36:08.523Z,101401.25
2017-11-09T01:38:35.361Z,101406.62
2017-11-09T01:41:02.296Z,101406.18
2017-11-09T01:43:29.324Z,101415.95
2017-11-09T01:45:56.225Z,101412.86
2017-11-09T01:48:23.128Z,101411.89
2017-11-09T01:50:49.983Z,101414.83
2017-11-09T01:53:16.809Z,101413.56
2017-11-09T01:55:44.905Z,101408.46
2017-11-09T01:58:13.060Z,101409.25
2017-11-09T02:00:39.925Z,101408.48
2017-11-09T02:03:07.604Z,101407.81
2017-11-09T02:05:34.492Z,101414.79
2017-11-09T02:08:02.555Z,101414.41
2017-11-09T02:10:30.748Z,101420.09
2017-11-09T02:12:57.603Z,101421.36
2017-11-09T02:15:24.498Z,101417.75
2017-11-09T02:17:51.533Z,101417.69
2017-11-09T02:20:18.430Z,101417.47
2017-11-09T02:22:46.118Z,101411.45
2017-11-09T02:25:13.147Z,101415.95
2017-11-09T02:27:40.096Z,101417.31
2017-11-09T02:30:07.059Z,101420.70
2017-11-09T02:32:33.979Z,101428.49
2017-11-09T02:35:00.853Z,101429.48
2017-11-09T02:37:27.909Z,101426.41
2017-11-09T02:39:54.802Z,101424.04
2017-11-09T02:42:21.983Z,101429.73
2017-11-09T02:44:49.648Z,101432.87
2017-11-09T02:47:16.555Z,101437.19
2017-11-09T02:49:43.538Z,101434.24
2017-11-09T02:52:10.436Z,101433.46
2017-11-09T02:54:37.343Z,101430.39
2017-11-09T02:57:04.260Z,101436.59
2017-11-09T02:59:31.217Z,101436.83
2017-11-09T03:01:58.073Z,101436.22
2017-11-09T03:04:24.936Z,101435.78
2017-11-09T03:06:51.826Z,101441.53
2017-11-09T03:09:18.712Z,101444.17
2017-11-09T03:11:45.605Z,101452.12
2017-11-09T03:14:12.460Z,101444.11
2017-11-09T03:16:55.696Z,101441.62
2017-11-09T03:19:23.545Z,101436.97
2017-11-09T03:21:50.444Z,101438.72
2017-11-09T03:24:17.320Z,101438.24
2017-11-09T03:26:45.196Z,101436.65
2017-11-09T03:29:12.076Z,101432.92
2017-11-09T03:31:39.081Z,101431.28
2017-11-09T03:34:05.965Z,101429.20
2017-11-09T03:36:32.813Z,101427.66
2017-11-09T03:39:00.585Z,101434.24
2017-11-09T03:41:27.419Z,101432.12
2017-11-09T03:43:55.076Z,101434.45
2017-11-09T03:46:22.006Z,101427.66
2017-11-09T03:48:48.844Z,101434.63
2017-11-09T03:51:15.697Z,101436.87
2017-11-09T03:53:42.548Z,101436.81
2017-11-09T03:56:09.693Z,101436.76
2017-11-09T03:58:36.521Z,101438.25
2017-11-09T04:01:03.380Z,101437.47
2017-11-09T04:03:30.249Z,101443.34
2017-11-09T04:05:57.091Z,101438.40
2017-11-09T04:08:23.949Z,101435.50
2017-11-09T04:10:50.909Z,101436.95
2017-11-09T04:13:18.055Z,101435.52
2017-11-09T04:15:44.972Z,101441.27
2017-11-09T04:18:11.827Z,101437.83
2017-11-09T04:20:39.501Z,101445.47
2017-11-09T04:23:06.353Z,101443.34
2017-11-09T04:25:33.200Z,101447.24
2017-11-09T04:28:01.013Z,101450.11
2017-11-09T04:30:27.853Z,101446.36
2017-11-09T04:32:54.694Z,101447.16
2017-11-09T04:35:21.602Z,101444.91
2017-11-09T04:37:48.456Z,101450.17
2017-11-09T04:40:15.296Z,101446.02
2017-11-09T04:42:42.171Z,101451.01
2017-11-09T04:45:09.037Z,101449.17
2017-11-09T04:47:36.504Z,101439.34
2017-11-09T04:50:03.427Z,101444.27
2017-11-09T04:52:30.281Z,101441.09
2017-11-09T04:54:57.820Z,101441.48
2017-11-09T04:57:24.671Z,101437.86
2017-11-09T04:59:51.501Z,101443.66
2017-11-09T05:02:18.325Z,101437.65
2017-11-09T05:04:45.523Z,101439.64
2017-11-09T05:07:12.438Z,101446.02
2017-11-09T05:09:39.297Z,101440.97
2017-11-09T05:12:06.187Z,101443.72
2017-11-09T05:14:33.801Z,101443.61
2017-11-09T05:17:04.381Z,101441.15
2017-11-09T05:19:31.234Z,101446.80
2017-11-09T05:21:58.083Z,101449.88
2017-11-09T05:24:24.969Z,101446.30
2017-11-09T05:26:51.815Z,101443.18
2017-11-09T05:29:18.711Z,101453.25
2017-11-09T05:31:46.485Z,101446.63
2017-11-09T05:34:13.399Z,101449.32
2017-11-09T05:36:40.272Z,101447.19
2017-11-09T05:39:07.151Z,101449.48
2017-11-09T05:41:34.084Z,101448.51
2017-11-09T05:44:00.944Z,101452.88
2017-11-09T05:46:27.799Z,101448.38
2017-11-09T05:48:54.674Z,101455.08
2017-11-09T05:51:22.339Z,101460.95
2017-11-09T05:53:49.177Z,101464.83
2017-11-09T05:56:16.115Z,101460.95
2017-11-09T05:58:43.738Z,101458.56
2017-11-09T06:01:11.016Z,101460.39
2017-11-09T06:03:37.911Z,101465.55
2017-11-09T06:06:04.776Z,101461.65
2017-11-09T06:08:31.655Z,101470.17
2017-11-09T06:11:00.152Z,101469.41
2017-11-09T06:13:27.061Z,101466.34
2017-11-09T06:15:54.495Z,101465.34
2017-11-09T06:18:21.329Z,101474.05
2017-11-09T06:20:48.207Z,101469.23
2017-11-09T06:23:15.118Z,101472.36
2017-11-09T06:25:41.981Z,101471.86
2017-11-09T06:28:08.853Z,101469.06
2017-11-09T06:30:36.157Z,101474.12
2017-11-09T06:33:03.818Z,101479.73
2017-11-09T06:35:30.675Z,101483.05
2017-11-09T06:37:57.581Z,101474.72
2017-11-09T06:40:24.549Z,101476.81
2017-11-09T06:42:51.421Z,101481.96
2017-11-09T06:45:18.317Z,101483.81
2017-11-09T06:47:45.913Z,101487.10
2017-11-09T06:50:12.784Z,101487.93
2017-11-09T06:52:39.662Z,101485.84
2017-11-09T06:55:06.580Z,101488.48
2017-11-09T06:57:34.207Z,101499.81
2017-11-09T07:00:01.067Z,101500.09
2017-11-09T07:02:27.924Z,101505.42
2017-11-09T07:04:54.861Z,101505.65
2017-11-09T07:07:21.694Z,101505.65
2017-11-09T07:09:48.506Z,101511.02
2017-11-09T07:12:15.374Z,101510.72
2017-11-09T07:14:42.235Z,101514.36
2017-11-09T07:17:09.052Z,101521.17
2017-11-09T07:19:36.607Z,101517.31
2017-11-09T07:22:03.450Z,101523.24
2017-11-09T07:24:30.299Z,101526.42
2017-11-09T07:26:57.133Z,101529.33
2017-11-09T07:29:23.979Z,101521.06
2017-11-09T07:31:51.576Z,101533.66
2017-11-09T07:34:18.448Z,101537.33
2017-11-09T07:36:45.311Z,101529.49
2017-11-09T07:39:12.894Z,101528.50
2017-11-09T07:41:39.746Z,101525.80
2017-11-09T07:44:06.618Z,101523.95
2017-11-09T07:46:34.191Z,101522.63
2017-11-09T07:49:01.039Z,101519.62
2017-11-09T07:51:27.866Z,101523.00
2017-11-09T07:53:55.447Z,101520.71
2017-11-09T07:56:23.030Z,101516.75
2017-11-09T07:58:50.620Z,101524.87
2017-11-09T08:01:18.171Z,101521.48
2017-11-09T08:03:45.009Z,101525.30
2017-11-09T08:06:11.869Z,101520.43
2017-11-09T08:08:38.702Z,101519.70
2017-11-09T08:11:05.517Z,101525.05
2017-11-09T08:13:32.315Z,101529.58
2017-11-09T08:15:59.167Z,101534.85
2017-11-09T08:18:26.002Z,101534.91
2017-11-09T08:20:53.550Z,101533.89
2017-11-09T08:23:20.414Z,101535.05
2017-11-09T08:25:50.053Z,101543.01
2017-11-09T08:28:20.732Z,101546.08
2017-11-09T08:30:49.393Z,101550.37
2017-11-09T08:33:18.199Z,101548.66
2017-11-09T08:35:45.104Z,101556.02
2017-11-09T08:38:12.713Z,101565.37
2017-11-09T08:40:39.558Z,101560.34
2017-11-09T08:43:06.388Z,101559.05
2017-11-09T08:45:33.986Z,101566.06
2017-11-09T08:48:00.840Z,101562.18
2017-11-09T08:50:28.397Z,101561.42
2017-11-09T08:52:55.199Z,101556.25
2017-11-09T08:55:22.048Z,101554.03
2017-11-09T08:57:48.906Z,101555.25
2017-11-09T09:00:15.729Z,101555.81
2017-11-09T09:02:42.558Z,101555.25
2017-11-09T09:05:10.621Z,101559.38
2017-11-09T09:07:38.820Z,101555.63
2017-11-09T09:10:05.766Z,101562.39
2017-11-09T09:12:33.563Z,101563.03
2017-11-09T09:15:00.465Z,101563.80
2017-11-09T09:17:27.392Z,101565.42
2017-11-09T09:19:54.260Z,101564.98
2017-11-09T09:56:35.585Z,101549.44
2017-11-09T09:59:02.434Z,101551.63
2017-11-09T10:01:29.297Z,101553.84
2017-11-09T10:03:56.154Z,101552.77
2017-11-09T10:06:22.997Z,101553.76
2017-11-09T10:08:49.861Z,101550.94
2017-11-09T10:11:16.665Z,101549.06
2017-11-09T10:13:43.479Z,101556.27
2017-11-09T10:16:11.040Z,101549.95
2017-11-09T10:18:37.903Z,101548.06
2017-11-09T10:21:04.744Z,101550.50
2017-11-09T10:23:32.475Z,101546.59
2017-11-09T10:26:00.158Z,101546.59
2017-11-09T10:28:26.999Z,101545.59
2017-11-09T10:30:53.803Z,101545.46
2017-11-09T10:33:20.652Z,101540.82
2017-11-09T10:35:47.504Z,101538.50
2017-11-09T10:38:14.343Z,101534.80
2017-11-09T10:40:41.188Z,101527.44
2017-11-09T10:43:08.073Z,101522.09
2017-11-09T10:45:34.981Z,101525.95
2017-11-09T10:48:02.568Z,101525.11
2017-11-09T10:50:30.159Z,101520.16
2017-11-09T10:52:57.268Z,101515.83
2017-11-09T10:55:24.089Z,101515.56
2017-11-09T10:57:50.960Z,101520.94
2017-11-09T11:00:17.849Z,101527.00
2017-11-09T11:02:44.724Z,101529.99
2017-11-09T11:05:11.629Z,101531.10
2017-11-09T11:07:38.566Z,101534.17
2017-11-09T11:10:06.201Z,101526.38
2017-11-09T11:12:33.033Z,101526.13
2017-11-09T11:15:00.595Z,101524.23
2017-11-09T11:17:28.149Z,101523.66
2017-11-09T11:19:54.960Z,101520.81
2017-11-09T11:22:21.772Z,101519.20
2017-11-09T11:24:48.589Z,101515.30
2017-11-09T11:27:15.423Z,101511.90
2017-11-09T11:29:43.045Z,101513.76
2017-11-09T11:32:09.905Z,101508.23
2017-11-09T11:34:36.740Z,101512.19
2017-11-09T11:37:03.658Z,101512.78
2017-11-09T11:39:30.529Z,101503.95
2017-11-09T11:41:57.346Z,101500.61
2017-11-09T11:44:24.177Z,101506.56
2017-11-09T11:46:51.009Z,101501.03
2017-11-09T11:49:17.857Z,101506.58
2017-11-09T11:51:44.689Z,101501.64
2017-11-09T11:54:11.534Z,101503.42
2017-11-09T11:56:38.343Z,101505.10
2017-11-09T11:59:05.155Z,101499.66
2017-11-09T12:01:32.005Z,101494.37
2017-11-09T12:03:58.833Z,101492.86
2017-11-09T12:06:25.682Z,101495.96
2017-11-09T12:08:52.544Z,101493.45
2017-11-09T12:11:19.374Z,101485.15
2017-11-09T12:13:46.244Z,101484.36
2017-11-09T12:16:13.112Z,101476.72
2017-11-09T12:18:39.926Z,101473.21
2017-11-09T12:21:07.509Z,101471.20
2017-11-09T12:23:35.063Z,101485.06
2017-11-09T12:26:01.904Z,101486.42
2017-11-09T12:28:28.752Z,101487.20
2017-11-09T12:30:58.515Z,101483.33
2017-11-09T12:33:25.342Z,101479.39
2017-11-09T12:35:52.185Z,101477.36
2017-11-09T12:38:19.030Z,101484.78
2017-11-09T12:40:45.871Z,101468.11
2017-11-09T12:43:13.483Z,101466.77
2017-11-09T12:45:40.448Z,101473.28
2017-11-09T12:48:07.367Z,101472.45
2017-11-09T12:50:34.966Z,101478.05
2017-11-09T12:53:02.517Z,101481.61
2017-11-09T12:55:29.415Z,101482.12
2017-11-09T12:57:56.248Z,101477.27
2017-11-09T13:00:24.078Z,101470.28
2017-11-09T13:02:50.946Z,101463.63
2017-11-09T13:05:17.789Z,101464.16
2017-11-09T13:07:44.624Z,101480.30
2017-11-09T13:10:12.185Z,101474.30
2017-11-09T13:12:39.036Z,101472.67
2017-11-09T13:15:05.921Z,101470.57
2017-11-09T13:17:33.565Z,101471.52
2017-11-09T13:20:00.427Z,101472.24
2017-11-09T13:22:27.297Z,101474.80
2017-11-09T13:24:54.487Z,101478.13
2017-11-09T13:27:22.108Z,101472.19
2017-11-09T13:29:48.975Z,101474.95
2017-11-09T13:32:15.868Z,101480.74
2017-11-09T13:34:42.929Z,101483.42
2017-11-09T13:37:10.878Z,101484.56
2017-11-09T13:39:37.725Z,101487.78
2017-11-09T13:42:04.571Z,101500.27
2017-11-09T13:44:32.129Z,101495.45
2017-11-09T13:46:59.431Z,101497.84
2017-11-09T13:49:27.055Z,101495.95
2017-11-09T13:51:53.965Z,101497.87
2017-11-09T13:54:20.821Z,101504.22
2017-11-09T13:56:48.564Z,101503.70
2017-11-09T13:59:15.468Z,101503.34
2017-11-09T14:01:43.027Z,101498.66
2017-11-09T14:04:09.997Z,101490.16
2017-11-09T14:06:36.818Z,101495.08
2017-11-09T14:09:04.191Z,101502.46
2017-11-09T14:11:31.027Z,101512.65
2017-11-09T14:13:57.860Z,101504.30
2017-11-09T14:16:25.473Z,101493.04
2017-11-09T14:18:52.329Z,101487.55
2017-11-09T14:21:19.598Z,101505.67
2017-11-09T14:23:46.516Z,101499.60
2017-11-09T14:26:13.393Z,101497.55
2017-11-09T14:28:40.244Z,101494.59
2017-11-09T14:31:07.082Z,101490.36
2017-11-09T14:33:33.929Z,101489.97
2017-11-09T14:36:00.779Z,101473.94
2017-11-09T14:38:30.489Z,101478.38
2017-11-09T14:40:59.803Z,101479.45
2017-11-09T14:43:26.704Z,101481.47
2017-11-09T14:45:53.542Z,101486.03
2017-11-09T14:48:20.559Z,101487.72
2017-11-09T14:50:47.380Z,101497.95
2017-11-09T14:53:14.359Z,101495.59
2017-11-09T14:55:41.193Z,101490.92
2017-11-09T14:58:08.043Z,101481.42
2017-11-09T15:00:34.890Z,101484.74
2017-11-09T15:03:01.717Z,101483.86
2017-11-09T15:05:28.563Z,101483.64
2017-11-09T15:07:55.411Z,101484.30
2017-11-09T15:10:22.268Z,101480.11
2017-11-09T15:12:49.138Z,101485.33
2017-11-09T15:15:16.417Z,101477.14
2017-11-09T15:17:43.326Z,101470.34
2017-11-09T15:20:10.981Z,101473.08
2017-11-09T15:22:38.273Z,101465.69
2017-11-09T15:25:07.339Z,101464.64
2017-11-09T15:27:34.265Z,101469.17
2017-11-09T15:30:01.164Z,101462.77
2017-11-09T15:32:33.599Z,101462.66
2017-11-09T15:35:01.237Z,101469.69
2017-11-09T15:37:28.134Z,101469.14
2017-11-09T15:39:54.946Z,101466.97
2017-11-09T15:42:21.826Z,101465.02
2017-11-09T15:44:48.691Z,101466.02
2017-11-09T15:47:15.520Z,101460.37
2017-11-09T15:49:42.425Z,101461.48
2017-11-09T15:52:09.342Z,101444.75
2017-11-09T15:54:36.205Z,101445.50
2017-11-09T16:19:38.680Z,101440.09
2017-11-09T16:22:05.549Z,101426.48
2017-11-09T16:24:32.435Z,101419.05
2017-11-09T16:26:59.308Z,101432.75
2017-11-09T16:29:26.182Z,101427.03
2017-11-09T16:31:53.091Z,101428.00
2017-11-09T16:34:19.920Z,101435.12
2017-11-09T16:36:46.773Z,101438.27
2017-11-09T16:39:13.612Z,101434.22
2017-11-09T16:41:40.505Z,101436.95
2017-11-09T16:44:07.305Z,101447.88
2017-11-09T16:46:34.164Z,101440.64
2017-11-09T16:49:01.082Z,101433.45
2017-11-09T16:51:27.942Z,101432.97
2017-11-09T16:53:54.809Z,101437.87
2017-11-09T16:56:21.704Z,101443.70
2017-11-09T16:58:51.451Z,101453.67
2017-11-09T17:01:18.304Z,101470.75
2017-11-09T17:03:45.187Z,101462.50
2017-11-09T17:06:12.031Z,101463.26
2017-11-09T17:08:38.899Z,101461.42
2017-11-09T17:11:10.079Z,101457.53
2017-11-09T17:13:36.926Z,101451.83
2017-11-09T17:16:03.802Z,101449.84
2017-11-09T17:18:33.600Z,101466.66
2017-11-09T17:21:00.489Z,101461.81
2017-11-09T17:23:28.039Z,101463.94
2017-11-09T17:25:54.932Z,101465.26
2017-11-09T17:28:21.749Z,101460.72
2017-11-09T17:30:48.568Z,101464.17
2017-11-09T17:33:15.429Z,101458.67
2017-11-09T17:35:42.263Z,101455.86
2017-11-09T17:38:09.112Z,101456.71
2017-11-09T17:40:35.942Z,101452.42
2017-11-09T17:43:03.530Z,101454.05
2017-11-09T17:45:31.148Z,101459.21
2017-11-09T17:47:58.212Z,101456.97
2017-11-09T17:50:25.792Z,101451.69
2017-11-09T17:52:52.614Z,101454.52
2017-11-09T17:55:19.438Z,101453.13
2017-11-09T17:57:47.048Z,101461.98
2017-11-09T18:00:17.479Z,101473.09
2017-11-09T18:02:45.124Z,101465.78
2017-11-09T18:05:12.003Z,101468.19
2017-11-09T18:07:39.029Z,101469.96
2017-11-09T18:10:05.875Z,101473.91
2017-11-09T18:12:32.734Z,101476.35
2017-11-09T18:14:59.577Z,101478.30
2017-11-09T18:17:27.168Z,101480.83
2017-11-09T18:19:54.719Z,101488.84
2017-11-09T18:22:22.308Z,101498.55
2017-11-09T18:24:49.232Z,101503.59
2017-11-09T18:27:16.088Z,101505.80
2017-11-09T18:29:42.931Z,101495.72
2017-11-09T18:32:09.817Z,101501.93
2017-11-09T18:34:36.686Z,101512.08
2017-11-09T18:37:03.543Z,101510.69
2017-11-09T18:39:30.507Z,101503.55
2017-11-09T18:41:57.324Z,101508.95
2017-11-09T18:44:24.934Z,101512.97
2017-11-09T18:46:51.800Z,101514.49
2017-11-09T18:49:18.712Z,101509.95
2017-11-09T18:51:45.565Z,101511.30
2017-11-09T18:54:13.293Z,101502.31
2017-11-09T18:56:40.155Z,101503.85
2017-11-09T18:59:13.369Z,101497.03
2017-11-09T19:01:40.231Z,101491.45
2017-11-09T19:04:07.349Z,101494.25
2017-11-09T19:06:35.542Z,101483.92
2017-11-09T19:09:08.165Z,101483.49
2017-11-09T19:11:35.032Z,101485.19
2017-11-09T19:14:01.905Z,101489.23
2017-11-09T19:16:29.404Z,101485.57
2017-11-09T19:18:56.268Z,101480.73
2017-11-09T19:21:23.085Z,101480.69
2017-11-09T19:23:50.058Z,101474.59
2017-11-09T19:26:16.910Z,101468.19
2017-11-09T19:28:43.919Z,101466.05
2017-11-09T19:31:11.344Z,101453.95
2017-11-09T19:33:38.250Z,101448.30
2017-11-09T19:36:05.227Z,101450.00
2017-11-09T19:38:33.563Z,101445.55
2017-11-09T19:41:00.648Z,101446.31
2017-11-09T19:43:27.624Z,101447.94
2017-11-09T19:45:54.757Z,101452.69
2017-11-09T19:48:21.675Z,101457.84
2017-11-09T19:50:49.029Z,101466.63
2017-11-09T19:53:17.243Z,101460.80
2017-11-09T19:55:44.903Z,101463.87
2017-11-09T19:58:11.760Z,101466.25
2017-11-09T20:00:39.362Z,101461.47
2017-11-09T20:03:06.270Z,101457.66
2017-11-09T20:05:34.768Z,101454.64
2017-11-09T20:08:03.048Z,101455.78
2017-11-09T20:10:29.988Z,101463.19
2017-11-09T20:12:56.857Z,101459.42
2017-11-09T20:15:23.696Z,101461.45
2017-11-09T20:17:50.562Z,101458.23
2017-11-09T20:20:17.411Z,101460.02
2017-11-09T20:22:44.229Z,101454.27
2017-11-09T20:25:11.944Z,101456.47
2017-11-09T20:27:38.762Z,101443.81
2017-11-09T20:30:06.709Z,101452.88
2017-11-09T20:32:34.194Z,101449.50
2017-11-09T20:35:01.870Z,101440.41
2017-11-09T20:37:28.712Z,101448.30
2017-11-09T20:39:55.598Z,101434.94
2017-11-09T20:42:22.439Z,101425.25
2017-11-09T20:44:50.199Z,101419.98
2017-11-09T20:47:17.150Z,101419.58
2017-11-09T20:49:45.000Z,101418.53
2017-11-09T20:52:13.606Z,101427.68
2017-11-09T20:54:40.510Z,101434.76
2017-11-09T20:57:07.713Z,101434.86
2017-11-09T20:59:34.559Z,101439.48
2017-11-09T21:02:01.411Z,101436.97
2017-11-09T21:04:28.277Z,101433.51
2017-11-09T21:06:55.191Z,101429.13
2017-11-09T21:09:22.801Z,101426.03
2017-11-09T21:11:50.054Z,101433.63
2017-11-09T21:14:18.490Z,101440.47
2017-11-09T21:16:45.355Z,101430.38
2017-11-09T21:19:12.229Z,101432.08
2017-11-09T21:21:39.116Z,101439.28
2017-11-09T21:24:05.996Z,101437.72
2017-11-09T21:26:33.646Z,101436.13
2017-11-09T21:29:00.523Z,101428.09
2017-11-09T21:31:27.406Z,101425.03
2017-11-09T21:33:54.308Z,101424.59
2017-11-09T21:36:21.195Z,101430.61
2017-11-09T21:38:48.181Z,101413.74
2017-11-09T21:41:15.775Z,101410.67
2017-11-09T21:43:43.345Z,101408.79
2017-11-09T21:46:10.930Z,101404.97
2017-11-09T21:48:37.776Z,101401.16
2017-11-09T21:51:10.196Z,101391.49
2017-11-09T21:53:37.013Z,101393.24
2017-11-09T21:56:03.868Z,101378.00
2017-11-09T21:58:30.705Z,101379.27
2017-11-09T22:00:57.585Z,101384.59
2017-11-09T22:03:24.421Z,101376.56
2017-11-09T22:05:51.320Z,101377.01
2017-11-09T22:08:18.173Z,101379.20
2017-11-09T22:10:45.021Z,101359.33
2017-11-09T22:13:11.846Z,101358.88
2017-11-09T22:15:38.657Z,101358.13
2017-11-09T22:18:05.543Z,101363.09
2017-11-09T22:20:33.121Z,101362.41
2017-11-09T22:23:00.717Z,101357.63
2017-11-09T22:25:27.571Z,101370.23
2017-11-09T22:27:55.224Z,101365.61
2017-11-09T22:30:22.113Z,101366.03
2017-11-09T22:32:49.022Z,101362.90
2017-11-09T22:35:16.282Z,101363.03
2017-11-09T22:37:43.613Z,101364.64
2017-11-09T22:40:10.559Z,101352.10
2017-11-09T22:42:37.424Z,101344.41
2017-11-09T22:45:05.069Z,101334.80
2017-11-09T22:47:31.921Z,101335.31
2017-11-09T22:49:58.783Z,101331.56
2017-11-09T22:52:25.659Z,101340.34
2017-11-09T22:54:52.485Z,101351.11
2017-11-09T22:57:19.389Z,101359.08
2017-11-09T22:59:46.275Z,101360.69
2017-11-09T23:02:13.129Z,101343.77
2017-11-09T23:04:40.009Z,101351.66
2017-11-09T23:07:07.608Z,101347.66
2017-11-09T23:09:34.555Z,101339.65
2017-11-09T23:12:02.212Z,101344.41
2017-11-09T23:14:29.107Z,101348.11
2017-11-09T23:16:56.031Z,101343.71
2017-11-09T23:19:22.867Z,101343.02
2017-11-09T23:21:49.744Z,101347.91
2017-11-09T23:24:16.594Z,101349.96
2017-11-09T23:26:43.479Z,101358.98
2017-11-09T23:29:10.339Z,101350.34
2017-11-09T23:31:37.222Z,101340.76
2017-11-09T23:34:04.863Z,101347.03
2017-11-09T23:36:31.752Z,101336.89
2017-11-09T23:38:58.626Z,101337.12
2017-11-09T23:41:26.398Z,101324.78
2017-11-09T23:43:53.281Z,101329.03
2017-11-09T23:46:20.902Z,101317.81
2017-11-09T23:48:47.761Z,101315.42
2017-11-09T23:51:14.621Z,101309.99
2017-11-09T23:53:41.528Z,101313.31
2017-11-09T23:56:09.106Z,101313.30
2017-11-09T23:58:35.982Z,101298.47
